sensor_id;sensor_type;location;lat;lon;timestamp;P1;durP1;ratioP1;P2;durP2;ratioP2
32810;SDS011;65470;47.324;8.548;2023-02-28T00:01:11;12.77;;;10.10;;
32810;SDS011;65470;47.324;8.548;2023-02-28T00:03:38;12.10;;;10.18;;
32810;SDS011;65470;47.324;8.548;2023-02-28T00:06:04;12.40;;;10.38;;
32810;SDS011;65470;47.324;8.548;2023-02-28T00:08:31;13.38;;;10.18;;
32810;SDS011;65470;47.324;8.548;2023-02-28T00:11:00;13.23;;;10.68;;
32810;SDS011;65470;47.324;8.548;2023-02-28T00:13:27;10.70;;;9.63;;
32810;SDS011;65470;47.324;8.548;2023-02-28T00:16:03;12.60;;;10.00;;
32810;SDS011;65470;47.324;8.548;2023-02-28T00:18:31;15.40;;;10.55;;
32810;SDS011;65470;47.324;8.548;2023-02-28T00:20:57;12.95;;;10.55;;
32810;SDS011;65470;47.324;8.548;2023-02-28T00:23:23;14.65;;;10.60;;
32810;SDS011;65470;47.324;8.548;2023-02-28T00:25:49;13.80;;;10.82;;
32810;SDS011;65470;47.324;8.548;2023-02-28T00:28:15;11.98;;;10.77;;
32810;SDS011;65470;47.324;8.548;2023-02-28T00:30:41;14.48;;;10.63;;
32810;SDS011;65470;47.324;8.548;2023-02-28T00:33:06;11.30;;;10.05;;
32810;SDS011;65470;47.324;8.548;2023-02-28T00:35:32;14.25;;;11.18;;
32810;SDS011;65470;47.324;8.548;2023-02-28T00:37:58;13.90;;;11.18;;
32810;SDS011;65470;47.324;8.548;2023-02-28T00:40:23;12.75;;;11.38;;
32810;SDS011;65470;47.324;8.548;2023-02-28T00:42:49;12.20;;;10.38;;
32810;SDS011;65470;47.324;8.548;2023-02-28T00:45:14;14.27;;;11.25;;
32810;SDS011;65470;47.324;8.548;2023-02-28T00:47:40;13.80;;;10.80;;
32810;SDS011;65470;47.324;8.548;2023-02-28T00:50:06;14.18;;;11.30;;
32810;SDS011;65470;47.324;8.548;2023-02-28T00:52:32;17.17;;;11.32;;
32810;SDS011;65470;47.324;8.548;2023-02-28T00:54:59;11.93;;;10.70;;
32810;SDS011;65470;47.324;8.548;2023-02-28T00:57:24;16.75;;;12.30;;
32810;SDS011;65470;47.324;8.548;2023-02-28T00:59:51;12.95;;;10.88;;
32810;SDS011;65470;47.324;8.548;2023-02-28T01:02:19;18.48;;;12.90;;
32810;SDS011;65470;47.324;8.548;2023-02-28T01:04:45;14.38;;;11.40;;
32810;SDS011;65470;47.324;8.548;2023-02-28T01:07:11;17.25;;;11.43;;
32810;SDS011;65470;47.324;8.548;2023-02-28T01:09:39;12.90;;;11.52;;
32810;SDS011;65470;47.324;8.548;2023-02-28T01:12:06;15.23;;;12.15;;
32810;SDS011;65470;47.324;8.548;2023-02-28T01:14:33;14.73;;;12.00;;
32810;SDS011;65470;47.324;8.548;2023-02-28T01:16:59;12.25;;;10.95;;
32810;SDS011;65470;47.324;8.548;2023-02-28T01:19:25;11.82;;;9.90;;
32810;SDS011;65470;47.324;8.548;2023-02-28T01:21:51;14.10;;;11.63;;
32810;SDS011;65470;47.324;8.548;2023-02-28T01:24:16;13.18;;;11.52;;
32810;SDS011;65470;47.324;8.548;2023-02-28T01:26:42;12.95;;;11.63;;
32810;SDS011;65470;47.324;8.548;2023-02-28T01:29:07;13.68;;;11.10;;
32810;SDS011;65470;47.324;8.548;2023-02-28T01:31:33;13.43;;;11.10;;
32810;SDS011;65470;47.324;8.548;2023-02-28T01:33:59;14.27;;;11.35;;
32810;SDS011;65470;47.324;8.548;2023-02-28T01:36:25;15.07;;;11.32;;
32810;SDS011;65470;47.324;8.548;2023-02-28T01:38:51;12.25;;;10.85;;
32810;SDS011;65470;47.324;8.548;2023-02-28T01:41:21;12.60;;;11.25;;
32810;SDS011;65470;47.324;8.548;2023-02-28T01:43:57;13.18;;;11.80;;
32810;SDS011;65470;47.324;8.548;2023-02-28T01:46:28;15.00;;;11.57;;
32810;SDS011;65470;47.324;8.548;2023-02-28T01:51:28;13.35;;;11.57;;
32810;SDS011;65470;47.324;8.548;2023-02-28T01:54:09;13.23;;;11.40;;
32810;SDS011;65470;47.324;8.548;2023-02-28T01:56:38;15.10;;;11.80;;
32810;SDS011;65470;47.324;8.548;2023-02-28T01:59:20;14.38;;;11.90;;
32810;SDS011;65470;47.324;8.548;2023-02-28T02:01:50;14.57;;;10.80;;
32810;SDS011;65470;47.324;8.548;2023-02-28T02:04:16;14.07;;;11.35;;
32810;SDS011;65470;47.324;8.548;2023-02-28T02:06:43;14.20;;;12.02;;
32810;SDS011;65470;47.324;8.548;2023-02-28T02:09:11;13.95;;;12.02;;
32810;SDS011;65470;47.324;8.548;2023-02-28T02:11:37;13.45;;;11.77;;
32810;SDS011;65470;47.324;8.548;2023-02-28T02:17:01;13.35;;;11.60;;
32810;SDS011;65470;47.324;8.548;2023-02-28T02:20:04;15.77;;;12.40;;
32810;SDS011;65470;47.324;8.548;2023-02-28T02:23:03;14.60;;;12.55;;
32810;SDS011;65470;47.324;8.548;2023-02-28T02:25:45;16.58;;;12.80;;
32810;SDS011;65470;47.324;8.548;2023-02-28T02:34:23;12.80;;;11.35;;
32810;SDS011;65470;47.324;8.548;2023-02-28T02:42:44;14.38;;;12.07;;
32810;SDS011;65470;47.324;8.548;2023-02-28T02:46:12;12.93;;;11.63;;
32810;SDS011;65470;47.324;8.548;2023-02-28T02:48:21;14.75;;;11.98;;
32810;SDS011;65470;47.324;8.548;2023-02-28T02:50:55;13.25;;;11.27;;
32810;SDS011;65470;47.324;8.548;2023-02-28T02:53:33;14.60;;;11.88;;
32810;SDS011;65470;47.324;8.548;2023-02-28T02:56:02;17.17;;;12.52;;
32810;SDS011;65470;47.324;8.548;2023-02-28T02:58:31;14.65;;;11.88;;
32810;SDS011;65470;47.324;8.548;2023-02-28T03:04:23;12.95;;;11.55;;
32810;SDS011;65470;47.324;8.548;2023-02-28T03:06:50;13.80;;;12.30;;
32810;SDS011;65470;47.324;8.548;2023-02-28T03:09:20;33.15;;;17.77;;
32810;SDS011;65470;47.324;8.548;2023-02-28T03:11:51;13.20;;;11.80;;
32810;SDS011;65470;47.324;8.548;2023-02-28T03:17:47;14.30;;;11.98;;
32810;SDS011;65470;47.324;8.548;2023-02-28T03:20:13;15.30;;;11.90;;
32810;SDS011;65470;47.324;8.548;2023-02-28T03:22:51;14.13;;;11.85;;
32810;SDS011;65470;47.324;8.548;2023-02-28T03:28:19;13.30;;;11.18;;
32810;SDS011;65470;47.324;8.548;2023-02-28T03:31:04;12.75;;;11.27;;
32810;SDS011;65470;47.324;8.548;2023-02-28T03:36:35;12.68;;;11.32;;
32810;SDS011;65470;47.324;8.548;2023-02-28T03:39:09;14.65;;;13.07;;
32810;SDS011;65470;47.324;8.548;2023-02-28T03:42:00;15.20;;;12.05;;
32810;SDS011;65470;47.324;8.548;2023-02-28T03:44:46;20.13;;;12.52;;
32810;SDS011;65470;47.324;8.548;2023-02-28T03:47:27;13.35;;;11.77;;
32810;SDS011;65470;47.324;8.548;2023-02-28T03:50:05;13.23;;;11.95;;
32810;SDS011;65470;47.324;8.548;2023-02-28T03:52:39;14.40;;;12.10;;
32810;SDS011;65470;47.324;8.548;2023-02-28T03:55:13;14.52;;;12.48;;
32810;SDS011;65470;47.324;8.548;2023-02-28T03:57:57;17.20;;;11.98;;
32810;SDS011;65470;47.324;8.548;2023-02-28T04:00:52;16.40;;;12.13;;
32810;SDS011;65470;47.324;8.548;2023-02-28T04:03:20;16.48;;;12.20;;
32810;SDS011;65470;47.324;8.548;2023-02-28T04:05:55;14.02;;;11.57;;
32810;SDS011;65470;47.324;8.548;2023-02-28T04:08:22;15.65;;;12.05;;
32810;SDS011;65470;47.324;8.548;2023-02-28T04:10:53;16.63;;;12.05;;
32810;SDS011;65470;47.324;8.548;2023-02-28T04:13:32;12.35;;;11.05;;
32810;SDS011;65470;47.324;8.548;2023-02-28T04:15:57;16.38;;;12.40;;
32810;SDS011;65470;47.324;8.548;2023-02-28T04:18:23;14.18;;;12.52;;
32810;SDS011;65470;47.324;8.548;2023-02-28T04:20:48;13.52;;;11.85;;
32810;SDS011;65470;47.324;8.548;2023-02-28T04:23:14;12.85;;;11.45;;
32810;SDS011;65470;47.324;8.548;2023-02-28T04:25:40;13.32;;;11.93;;
32810;SDS011;65470;47.324;8.548;2023-02-28T04:28:05;13.15;;;11.43;;
32810;SDS011;65470;47.324;8.548;2023-02-28T04:30:31;13.98;;;11.98;;
32810;SDS011;65470;47.324;8.548;2023-02-28T04:32:57;13.23;;;11.55;;
32810;SDS011;65470;47.324;8.548;2023-02-28T04:35:23;13.60;;;12.20;;
32810;SDS011;65470;47.324;8.548;2023-02-28T04:37:49;14.05;;;11.60;;
32810;SDS011;65470;47.324;8.548;2023-02-28T04:40:14;14.55;;;12.18;;
32810;SDS011;65470;47.324;8.548;2023-02-28T04:42:40;13.23;;;11.77;;
32810;SDS011;65470;47.324;8.548;2023-02-28T04:45:06;13.63;;;12.18;;
32810;SDS011;65470;47.324;8.548;2023-02-28T04:47:35;13.93;;;12.25;;
32810;SDS011;65470;47.324;8.548;2023-02-28T04:50:01;13.20;;;11.75;;
32810;SDS011;65470;47.324;8.548;2023-02-28T04:52:27;12.52;;;11.23;;
32810;SDS011;65470;47.324;8.548;2023-02-28T04:54:52;13.45;;;11.65;;
32810;SDS011;65470;47.324;8.548;2023-02-28T04:57:18;15.18;;;12.57;;
32810;SDS011;65470;47.324;8.548;2023-02-28T04:59:44;14.82;;;11.82;;
32810;SDS011;65470;47.324;8.548;2023-02-28T05:02:09;13.45;;;11.43;;
32810;SDS011;65470;47.324;8.548;2023-02-28T05:04:35;13.52;;;11.60;;
32810;SDS011;65470;47.324;8.548;2023-02-28T05:07:02;13.85;;;11.73;;
32810;SDS011;65470;47.324;8.548;2023-02-28T05:09:28;12.63;;;11.32;;
32810;SDS011;65470;47.324;8.548;2023-02-28T05:11:54;16.50;;;11.68;;
32810;SDS011;65470;47.324;8.548;2023-02-28T05:14:20;12.93;;;11.63;;
32810;SDS011;65470;47.324;8.548;2023-02-28T05:16:46;13.35;;;11.73;;
32810;SDS011;65470;47.324;8.548;2023-02-28T05:19:12;13.52;;;11.50;;
32810;SDS011;65470;47.324;8.548;2023-02-28T05:21:38;13.00;;;11.60;;
32810;SDS011;65470;47.324;8.548;2023-02-28T05:24:33;14.32;;;11.85;;
32810;SDS011;65470;47.324;8.548;2023-02-28T05:26:59;13.27;;;11.63;;
32810;SDS011;65470;47.324;8.548;2023-02-28T05:29:25;15.15;;;11.98;;
32810;SDS011;65470;47.324;8.548;2023-02-28T05:31:50;14.82;;;12.13;;
32810;SDS011;65470;47.324;8.548;2023-02-28T05:34:16;19.77;;;14.00;;
32810;SDS011;65470;47.324;8.548;2023-02-28T05:36:42;17.38;;;12.05;;
32810;SDS011;65470;47.324;8.548;2023-02-28T05:39:08;16.15;;;12.55;;
32810;SDS011;65470;47.324;8.548;2023-02-28T05:41:37;13.43;;;12.02;;
32810;SDS011;65470;47.324;8.548;2023-02-28T05:44:04;13.80;;;11.88;;
32810;SDS011;65470;47.324;8.548;2023-02-28T05:46:30;13.38;;;11.40;;
32810;SDS011;65470;47.324;8.548;2023-02-28T05:48:55;17.35;;;12.70;;
32810;SDS011;65470;47.324;8.548;2023-02-28T05:51:22;13.52;;;11.98;;
32810;SDS011;65470;47.324;8.548;2023-02-28T05:53:48;13.52;;;12.10;;
32810;SDS011;65470;47.324;8.548;2023-02-28T05:56:14;12.88;;;11.48;;
32810;SDS011;65470;47.324;8.548;2023-02-28T05:58:40;13.82;;;12.40;;
32810;SDS011;65470;47.324;8.548;2023-02-28T06:01:19;13.43;;;11.63;;
32810;SDS011;65470;47.324;8.548;2023-02-28T06:04:05;14.52;;;12.00;;
32810;SDS011;65470;47.324;8.548;2023-02-28T06:06:33;14.25;;;12.38;;
32810;SDS011;65470;47.324;8.548;2023-02-28T06:08:59;13.25;;;11.82;;
32810;SDS011;65470;47.324;8.548;2023-02-28T06:11:25;14.18;;;12.77;;
32810;SDS011;65470;47.324;8.548;2023-02-28T06:14:00;16.40;;;11.90;;
32810;SDS011;65470;47.324;8.548;2023-02-28T06:16:27;13.80;;;12.27;;
32810;SDS011;65470;47.324;8.548;2023-02-28T06:18:53;16.15;;;12.13;;
32810;SDS011;65470;47.324;8.548;2023-02-28T06:21:21;13.18;;;11.57;;
32810;SDS011;65470;47.324;8.548;2023-02-28T06:23:47;13.05;;;11.50;;
32810;SDS011;65470;47.324;8.548;2023-02-28T06:26:12;14.07;;;11.77;;
32810;SDS011;65470;47.324;8.548;2023-02-28T06:28:38;13.65;;;12.05;;
32810;SDS011;65470;47.324;8.548;2023-02-28T06:31:07;13.48;;;11.40;;
32810;SDS011;65470;47.324;8.548;2023-02-28T06:33:35;12.82;;;11.25;;
32810;SDS011;65470;47.324;8.548;2023-02-28T06:36:01;14.15;;;12.70;;
32810;SDS011;65470;47.324;8.548;2023-02-28T06:38:27;15.77;;;11.63;;
32810;SDS011;65470;47.324;8.548;2023-02-28T06:40:56;16.88;;;12.30;;
32810;SDS011;65470;47.324;8.548;2023-02-28T06:43:23;16.40;;;13.05;;
32810;SDS011;65470;47.324;8.548;2023-02-28T06:45:50;13.95;;;12.07;;
32810;SDS011;65470;47.324;8.548;2023-02-28T06:48:18;13.63;;;11.85;;
32810;SDS011;65470;47.324;8.548;2023-02-28T06:50:44;14.18;;;12.10;;
32810;SDS011;65470;47.324;8.548;2023-02-28T06:53:10;13.43;;;12.00;;
32810;SDS011;65470;47.324;8.548;2023-02-28T06:55:37;13.63;;;11.93;;
32810;SDS011;65470;47.324;8.548;2023-02-28T06:58:03;14.30;;;11.85;;
32810;SDS011;65470;47.324;8.548;2023-02-28T07:00:38;14.57;;;12.27;;
32810;SDS011;65470;47.324;8.548;2023-02-28T07:03:04;15.90;;;11.52;;
32810;SDS011;65470;47.324;8.548;2023-02-28T07:05:29;14.38;;;12.07;;
32810;SDS011;65470;47.324;8.548;2023-02-28T07:07:55;14.02;;;12.32;;
32810;SDS011;65470;47.324;8.548;2023-02-28T07:10:21;17.30;;;12.63;;
32810;SDS011;65470;47.324;8.548;2023-02-28T07:12:47;15.05;;;12.10;;
32810;SDS011;65470;47.324;8.548;2023-02-28T07:15:13;14.55;;;12.60;;
32810;SDS011;65470;47.324;8.548;2023-02-28T07:17:38;12.50;;;11.23;;
32810;SDS011;65470;47.324;8.548;2023-02-28T07:20:04;14.90;;;13.10;;
32810;SDS011;65470;47.324;8.548;2023-02-28T07:22:30;13.05;;;11.75;;
32810;SDS011;65470;47.324;8.548;2023-02-28T07:24:56;17.30;;;12.57;;
32810;SDS011;65470;47.324;8.548;2023-02-28T07:27:21;13.65;;;11.90;;
32810;SDS011;65470;47.324;8.548;2023-02-28T07:29:50;15.65;;;12.23;;
32810;SDS011;65470;47.324;8.548;2023-02-28T07:32:16;15.73;;;11.85;;
32810;SDS011;65470;47.324;8.548;2023-02-28T07:34:43;15.88;;;12.48;;
32810;SDS011;65470;47.324;8.548;2023-02-28T07:37:09;19.52;;;12.98;;
32810;SDS011;65470;47.324;8.548;2023-02-28T07:39:35;16.95;;;12.70;;
32810;SDS011;65470;47.324;8.548;2023-02-28T07:42:04;16.35;;;12.35;;
32810;SDS011;65470;47.324;8.548;2023-02-28T07:44:31;23.30;;;17.60;;
32810;SDS011;65470;47.324;8.548;2023-02-28T07:46:57;14.02;;;12.52;;
32810;SDS011;65470;47.324;8.548;2023-02-28T07:49:22;17.73;;;13.02;;
32810;SDS011;65470;47.324;8.548;2023-02-28T07:51:48;13.63;;;12.23;;
32810;SDS011;65470;47.324;8.548;2023-02-28T07:54:14;19.33;;;12.65;;
32810;SDS011;65470;47.324;8.548;2023-02-28T07:56:39;16.65;;;12.43;;
32810;SDS011;65470;47.324;8.548;2023-02-28T07:59:05;16.25;;;13.07;;
32810;SDS011;65470;47.324;8.548;2023-02-28T08:01:30;15.50;;;12.40;;
32810;SDS011;65470;47.324;8.548;2023-02-28T08:03:56;14.52;;;12.05;;
32810;SDS011;65470;47.324;8.548;2023-02-28T08:06:23;16.92;;;12.35;;
32810;SDS011;65470;47.324;8.548;2023-02-28T08:08:49;15.50;;;12.93;;
32810;SDS011;65470;47.324;8.548;2023-02-28T08:11:16;14.07;;;12.32;;
32810;SDS011;65470;47.324;8.548;2023-02-28T08:13:43;13.73;;;12.32;;
32810;SDS011;65470;47.324;8.548;2023-02-28T08:16:09;13.50;;;12.10;;
32810;SDS011;65470;47.324;8.548;2023-02-28T08:18:35;16.08;;;12.40;;
32810;SDS011;65470;47.324;8.548;2023-02-28T08:21:10;13.75;;;12.27;;
32810;SDS011;65470;47.324;8.548;2023-02-28T08:23:37;13.85;;;12.32;;
32810;SDS011;65470;47.324;8.548;2023-02-28T08:26:03;14.52;;;12.52;;
32810;SDS011;65470;47.324;8.548;2023-02-28T08:28:29;18.13;;;12.98;;
32810;SDS011;65470;47.324;8.548;2023-02-28T08:30:55;16.45;;;11.77;;
32810;SDS011;65470;47.324;8.548;2023-02-28T08:33:21;14.90;;;12.60;;
32810;SDS011;65470;47.324;8.548;2023-02-28T08:35:47;15.70;;;13.00;;
32810;SDS011;65470;47.324;8.548;2023-02-28T08:38:13;16.73;;;11.82;;
32810;SDS011;65470;47.324;8.548;2023-02-28T08:40:39;14.90;;;13.05;;
32810;SDS011;65470;47.324;8.548;2023-02-28T08:43:05;14.68;;;13.15;;
32810;SDS011;65470;47.324;8.548;2023-02-28T08:45:31;13.80;;;12.30;;
32810;SDS011;65470;47.324;8.548;2023-02-28T08:47:56;15.02;;;11.80;;
32810;SDS011;65470;47.324;8.548;2023-02-28T08:50:22;13.73;;;12.23;;
32810;SDS011;65470;47.324;8.548;2023-02-28T08:52:48;18.77;;;12.90;;
32810;SDS011;65470;47.324;8.548;2023-02-28T08:55:13;13.80;;;12.18;;
32810;SDS011;65470;47.324;8.548;2023-02-28T08:57:39;15.57;;;13.05;;
32810;SDS011;65470;47.324;8.548;2023-02-28T09:00:05;17.27;;;12.85;;
32810;SDS011;65470;47.324;8.548;2023-02-28T09:02:31;16.88;;;12.20;;
32810;SDS011;65470;47.324;8.548;2023-02-28T09:04:57;15.57;;;12.25;;
32810;SDS011;65470;47.324;8.548;2023-02-28T09:07:23;15.15;;;13.52;;
32810;SDS011;65470;47.324;8.548;2023-02-28T09:09:50;15.85;;;13.25;;
32810;SDS011;65470;47.324;8.548;2023-02-28T09:12:23;17.60;;;13.15;;
32810;SDS011;65470;47.324;8.548;2023-02-28T09:14:49;16.83;;;13.05;;
32810;SDS011;65470;47.324;8.548;2023-02-28T09:17:16;15.57;;;12.43;;
32810;SDS011;65470;47.324;8.548;2023-02-28T09:19:42;16.70;;;12.93;;
32810;SDS011;65470;47.324;8.548;2023-02-28T09:22:08;15.02;;;12.43;;
32810;SDS011;65470;47.324;8.548;2023-02-28T09:24:35;15.38;;;13.38;;
32810;SDS011;65470;47.324;8.548;2023-02-28T09:27:02;16.05;;;12.30;;
32810;SDS011;65470;47.324;8.548;2023-02-28T09:29:28;15.02;;;12.57;;
32810;SDS011;65470;47.324;8.548;2023-02-28T09:31:53;32.97;;;20.25;;
32810;SDS011;65470;47.324;8.548;2023-02-28T09:34:19;14.95;;;13.35;;
32810;SDS011;65470;47.324;8.548;2023-02-28T09:36:45;13.90;;;12.40;;
32810;SDS011;65470;47.324;8.548;2023-02-28T09:39:11;14.02;;;12.52;;
32810;SDS011;65470;47.324;8.548;2023-02-28T09:41:38;16.23;;;12.75;;
32810;SDS011;65470;47.324;8.548;2023-02-28T09:44:13;17.92;;;12.95;;
32810;SDS011;65470;47.324;8.548;2023-02-28T09:47:00;14.43;;;12.38;;
32810;SDS011;65470;47.324;8.548;2023-02-28T09:49:39;15.05;;;11.95;;
32810;SDS011;65470;47.324;8.548;2023-02-28T09:52:09;14.35;;;12.85;;
32810;SDS011;65470;47.324;8.548;2023-02-28T09:54:39;14.18;;;12.25;;
32810;SDS011;65470;47.324;8.548;2023-02-28T09:59:50;14.32;;;12.73;;
32810;SDS011;65470;47.324;8.548;2023-02-28T10:05:25;14.18;;;12.70;;
32810;SDS011;65470;47.324;8.548;2023-02-28T10:08:13;16.98;;;13.25;;
32810;SDS011;65470;47.324;8.548;2023-02-28T10:11:00;15.93;;;13.05;;
32810;SDS011;65470;47.324;8.548;2023-02-28T10:16:39;13.90;;;12.25;;
32810;SDS011;65470;47.324;8.548;2023-02-28T10:21:46;16.35;;;12.95;;
32810;SDS011;65470;47.324;8.548;2023-02-28T10:24:33;17.02;;;13.35;;
32810;SDS011;65470;47.324;8.548;2023-02-28T10:27:16;17.48;;;13.10;;
32810;SDS011;65470;47.324;8.548;2023-02-28T10:29:50;15.45;;;13.82;;
32810;SDS011;65470;47.324;8.548;2023-02-28T10:32:22;15.35;;;13.13;;
32810;SDS011;65470;47.324;8.548;2023-02-28T10:34:53;14.80;;;13.02;;
32810;SDS011;65470;47.324;8.548;2023-02-28T10:37:24;14.55;;;13.02;;
32810;SDS011;65470;47.324;8.548;2023-02-28T10:39:49;15.05;;;12.90;;
32810;SDS011;65470;47.324;8.548;2023-02-28T10:45:04;15.05;;;13.40;;
32810;SDS011;65470;47.324;8.548;2023-02-28T10:48:02;16.10;;;13.00;;
32810;SDS011;65470;47.324;8.548;2023-02-28T10:50:29;14.10;;;12.60;;
32810;SDS011;65470;47.324;8.548;2023-02-28T10:53:58;14.45;;;12.93;;
32810;SDS011;65470;47.324;8.548;2023-02-28T11:01:17;15.63;;;13.02;;
32810;SDS011;65470;47.324;8.548;2023-02-28T11:03:49;15.20;;;13.50;;
32810;SDS011;65470;47.324;8.548;2023-02-28T11:06:16;15.05;;;12.45;;
32810;SDS011;65470;47.324;8.548;2023-02-28T11:09:04;15.85;;;13.18;;
32810;SDS011;65470;47.324;8.548;2023-02-28T11:11:44;15.07;;;13.48;;
32810;SDS011;65470;47.324;8.548;2023-02-28T11:14:22;14.35;;;12.85;;
32810;SDS011;65470;47.324;8.548;2023-02-28T11:16:51;16.05;;;12.68;;
32810;SDS011;65470;47.324;8.548;2023-02-28T11:19:40;14.98;;;13.40;;
32810;SDS011;65470;47.324;8.548;2023-02-28T11:22:09;16.40;;;13.55;;
32810;SDS011;65470;47.324;8.548;2023-02-28T11:24:45;14.60;;;13.05;;
32810;SDS011;65470;47.324;8.548;2023-02-28T11:29:56;14.63;;;13.13;;
32810;SDS011;65470;47.324;8.548;2023-02-28T11:32:23;14.43;;;12.43;;
32810;SDS011;65470;47.324;8.548;2023-02-28T11:37:33;16.92;;;12.88;;
32810;SDS011;65470;47.324;8.548;2023-02-28T11:39:59;14.88;;;13.25;;
32810;SDS011;65470;47.324;8.548;2023-02-28T11:45:22;14.88;;;13.07;;
32810;SDS011;65470;47.324;8.548;2023-02-28T12:08:02;15.07;;;13.45;;
32810;SDS011;65470;47.324;8.548;2023-02-28T12:16:22;16.02;;;13.55;;
32810;SDS011;65470;47.324;8.548;2023-02-28T12:19:01;14.45;;;12.95;;
32810;SDS011;65470;47.324;8.548;2023-02-28T12:21:41;14.27;;;12.77;;
32810;SDS011;65470;47.324;8.548;2023-02-28T12:26:47;14.90;;;13.18;;
32810;SDS011;65470;47.324;8.548;2023-02-28T12:32:10;14.10;;;12.48;;
32810;SDS011;65470;47.324;8.548;2023-02-28T12:34:42;16.05;;;12.73;;
32810;SDS011;65470;47.324;8.548;2023-02-28T12:37:17;22.52;;;14.38;;
32810;SDS011;65470;47.324;8.548;2023-02-28T12:40:15;25.00;;;14.20;;
32810;SDS011;65470;47.324;8.548;2023-02-28T12:42:56;17.23;;;13.35;;
32810;SDS011;65470;47.324;8.548;2023-02-28T12:45:40;18.27;;;13.50;;
32810;SDS011;65470;47.324;8.548;2023-02-28T12:48:21;17.75;;;13.60;;
32810;SDS011;65470;47.324;8.548;2023-02-28T12:50:53;16.40;;;13.20;;
32810;SDS011;65470;47.324;8.548;2023-02-28T13:04:39;16.33;;;13.02;;
32810;SDS011;65470;47.324;8.548;2023-02-28T13:09:58;15.98;;;13.82;;
32810;SDS011;65470;47.324;8.548;2023-02-28T13:12:27;17.08;;;14.88;;
32810;SDS011;65470;47.324;8.548;2023-02-28T13:15:02;20.55;;;14.32;;
32810;SDS011;65470;47.324;8.548;2023-02-28T13:17:40;15.20;;;13.57;;
32810;SDS011;65470;47.324;8.548;2023-02-28T13:20:15;20.02;;;14.13;;
32810;SDS011;65470;47.324;8.548;2023-02-28T13:22:45;18.42;;;14.48;;
32810;SDS011;65470;47.324;8.548;2023-02-28T13:27:48;18.10;;;14.48;;
32810;SDS011;65470;47.324;8.548;2023-02-28T13:33:34;17.27;;;13.65;;
32810;SDS011;65470;47.324;8.548;2023-02-28T13:38:51;16.25;;;13.38;;
32810;SDS011;65470;47.324;8.548;2023-02-28T13:46:28;17.75;;;13.80;;
32810;SDS011;65470;47.324;8.548;2023-02-28T13:48:55;16.88;;;13.93;;
32810;SDS011;65470;47.324;8.548;2023-02-28T13:54:28;23.67;;;14.60;;
32810;SDS011;65470;47.324;8.548;2023-02-28T14:07:51;19.13;;;15.32;;
32810;SDS011;65470;47.324;8.548;2023-02-28T14:10:43;17.60;;;15.07;;
32810;SDS011;65470;47.324;8.548;2023-02-28T14:15:59;19.27;;;14.50;;
32810;SDS011;65470;47.324;8.548;2023-02-28T14:18:33;18.75;;;15.52;;
32810;SDS011;65470;47.324;8.548;2023-02-28T14:21:03;21.00;;;15.20;;
32810;SDS011;65470;47.324;8.548;2023-02-28T14:32:06;21.05;;;15.93;;
32810;SDS011;65470;47.324;8.548;2023-02-28T14:37:47;17.38;;;15.55;;
32810;SDS011;65470;47.324;8.548;2023-02-28T14:40:18;19.88;;;14.68;;
32810;SDS011;65470;47.324;8.548;2023-02-28T14:42:58;28.63;;;16.00;;
32810;SDS011;65470;47.324;8.548;2023-02-28T14:45:27;16.02;;;14.38;;
32810;SDS011;65470;47.324;8.548;2023-02-28T14:47:55;20.35;;;15.30;;
32810;SDS011;65470;47.324;8.548;2023-02-28T14:50:34;22.52;;;15.40;;
32810;SDS011;65470;47.324;8.548;2023-02-28T14:53:01;25.38;;;16.30;;
32810;SDS011;65470;47.324;8.548;2023-02-28T14:55:32;18.73;;;15.18;;
32810;SDS011;65470;47.324;8.548;2023-02-28T14:58:01;17.13;;;14.20;;
32810;SDS011;65470;47.324;8.548;2023-02-28T15:00:32;19.95;;;15.35;;
32810;SDS011;65470;47.324;8.548;2023-02-28T15:03:00;19.25;;;15.57;;
32810;SDS011;65470;47.324;8.548;2023-02-28T15:05:41;23.35;;;15.13;;
32810;SDS011;65470;47.324;8.548;2023-02-28T15:08:15;19.27;;;16.02;;
32810;SDS011;65470;47.324;8.548;2023-02-28T15:10:49;17.17;;;15.38;;
32810;SDS011;65470;47.324;8.548;2023-02-28T15:13:20;17.50;;;14.82;;
32810;SDS011;65470;47.324;8.548;2023-02-28T15:18:33;16.92;;;15.07;;
32810;SDS011;65470;47.324;8.548;2023-02-28T15:23:59;22.30;;;15.40;;
32810;SDS011;65470;47.324;8.548;2023-02-28T15:26:30;19.48;;;15.70;;
32810;SDS011;65470;47.324;8.548;2023-02-28T15:29:07;20.58;;;15.98;;
32810;SDS011;65470;47.324;8.548;2023-02-28T15:32:18;18.45;;;16.08;;
32810;SDS011;65470;47.324;8.548;2023-02-28T15:34:38;17.83;;;15.85;;
32810;SDS011;65470;47.324;8.548;2023-02-28T15:42:36;20.55;;;16.38;;
32810;SDS011;65470;47.324;8.548;2023-02-28T15:45:02;17.75;;;15.32;;
32810;SDS011;65470;47.324;8.548;2023-02-28T15:47:27;20.60;;;16.90;;
32810;SDS011;65470;47.324;8.548;2023-02-28T15:49:56;19.88;;;16.40;;
32810;SDS011;65470;47.324;8.548;2023-02-28T15:52:38;24.08;;;17.40;;
32810;SDS011;65470;47.324;8.548;2023-02-28T15:55:28;21.75;;;17.77;;
32810;SDS011;65470;47.324;8.548;2023-02-28T15:57:57;19.85;;;17.75;;
32810;SDS011;65470;47.324;8.548;2023-02-28T16:00:27;21.33;;;16.92;;
32810;SDS011;65470;47.324;8.548;2023-02-28T16:02:54;22.40;;;18.30;;
32810;SDS011;65470;47.324;8.548;2023-02-28T16:08:00;21.58;;;17.10;;
32810;SDS011;65470;47.324;8.548;2023-02-28T16:10:36;18.45;;;15.88;;
32810;SDS011;65470;47.324;8.548;2023-02-28T16:13:02;25.20;;;18.08;;
32810;SDS011;65470;47.324;8.548;2023-02-28T16:15:28;20.38;;;17.70;;
32810;SDS011;65470;47.324;8.548;2023-02-28T16:17:59;21.08;;;18.15;;
32810;SDS011;65470;47.324;8.548;2023-02-28T16:20:26;22.05;;;17.67;;
32810;SDS011;65470;47.324;8.548;2023-02-28T16:22:53;22.02;;;18.05;;
32810;SDS011;65470;47.324;8.548;2023-02-28T16:25:32;21.77;;;18.08;;
32810;SDS011;65470;47.324;8.548;2023-02-28T16:28:00;22.77;;;18.25;;
32810;SDS011;65470;47.324;8.548;2023-02-28T16:30:26;29.55;;;19.67;;
32810;SDS011;65470;47.324;8.548;2023-02-28T16:32:56;25.67;;;18.95;;
32810;SDS011;65470;47.324;8.548;2023-02-28T16:35:22;22.85;;;18.77;;
32810;SDS011;65470;47.324;8.548;2023-02-28T16:37:50;24.15;;;19.73;;
32810;SDS011;65470;47.324;8.548;2023-02-28T16:40:17;22.92;;;20.10;;
32810;SDS011;65470;47.324;8.548;2023-02-28T16:42:46;23.10;;;18.58;;
32810;SDS011;65470;47.324;8.548;2023-02-28T16:45:23;22.63;;;19.08;;
32810;SDS011;65470;47.324;8.548;2023-02-28T16:47:51;23.40;;;18.58;;
32810;SDS011;65470;47.324;8.548;2023-02-28T16:50:18;23.95;;;18.77;;
32810;SDS011;65470;47.324;8.548;2023-02-28T16:52:45;22.67;;;18.65;;
32810;SDS011;65470;47.324;8.548;2023-02-28T16:55:11;24.10;;;19.15;;
32810;SDS011;65470;47.324;8.548;2023-02-28T16:57:37;24.30;;;19.50;;
32810;SDS011;65470;47.324;8.548;2023-02-28T17:00:05;24.40;;;18.90;;
32810;SDS011;65470;47.324;8.548;2023-02-28T17:02:33;24.65;;;19.60;;
32810;SDS011;65470;47.324;8.548;2023-02-28T17:04:59;22.05;;;19.35;;
32810;SDS011;65470;47.324;8.548;2023-02-28T17:07:25;23.45;;;19.45;;
32810;SDS011;65470;47.324;8.548;2023-02-28T17:09:51;25.65;;;19.73;;
32810;SDS011;65470;47.324;8.548;2023-02-28T17:12:17;23.50;;;19.65;;
32810;SDS011;65470;47.324;8.548;2023-02-28T17:14:42;30.67;;;20.05;;
32810;SDS011;65470;47.324;8.548;2023-02-28T17:17:10;26.08;;;21.10;;